Time;durP1;ratioP1;P1;durP2;ratioP2;P2;SDS_P1;SDS_P2;PMS_P1;PMS_P2;Temp;Humidity;BMP_temperature;BMP_pressure;BME280_temperature;BME280_humidity;BME280_pressure;Samples;Min_cycle;Max_cycle;Signal;HPM_P1;HPM_P2
2023/08/01 00:02:52;;;;;;;6.88;2.05;;;;;;;21.81;65.97;99623.59;10330794;28;20544;-79
2023/08/01 00:07:53;;;;;;;6.93;2.75;;;;;;;21.94;66.24;99653.97;10331322;28;20096;-79
2023/08/01 00:12:53;;;;;;;3.33;1.85;;;;;;;21.09;66.52;99538.41;10330220;28;20066;-79
2023/08/01 00:17:54;;;;;;;4.32;2.20;;;;;;;21.30;66.68;99593.44;10313433;28;20069;-79
2023/08/01 00:22:55;;;;;;;6.53;2.10;;;;;;;21.16;68.06;99589.50;10330865;28;20046;-80
2023/08/01 00:27:56;;;;;;;8.38;2.30;;;;;;;21.83;68.89;99702.53;10331312;28;20042;-80
2023/08/01 00:32:56;;;;;;;9.07;2.60;;;;;;;20.95;69.29;99599.28;10329968;28;20042;-79
2023/08/01 00:37:57;;;;;;;16.63;2.72;;;;;;;21.23;71.04;99664.94;10318033;28;20042;-80
2023/08/01 00:42:58;;;;;;;11.50;2.67;;;;;;;21.19;71.84;99697.84;10337136;28;20526;-80
2023/08/01 00:47:59;;;;;;;8.57;2.17;;;;;;;20.92;72.72;99686.19;10337530;28;20043;-79
2023/08/01 00:53:00;;;;;;;6.65;2.22;;;;;;;20.68;73.62;99693.72;10337366;28;20038;-79
2023/08/01 00:58:03;;;;;;;8.25;2.47;;;;;;;20.28;74.05;99638.97;10336151;28;20038;-79
2023/08/01 01:03:04;;;;;;;8.80;2.53;;;;;;;20.32;73.03;99641.16;10336113;28;20430;-79
2023/08/01 01:08:05;;;;;;;4.43;2.28;;;;;;;20.02;72.88;99588.44;10337172;28;20042;-79
2023/08/01 01:13:06;;;;;;;19.63;3.65;;;;;;;20.50;72.90;99668.66;10337093;28;20054;-79
2023/08/01 01:18:06;;;;;;;36.22;3.95;;;;;;;20.96;73.72;99752.94;10336652;28;20042;-79
2023/08/01 01:23:09;;;;;;;63.60;4.50;;;;;;;21.11;73.63;99773.91;10335224;28;20074;-79
2023/08/01 01:28:11;;;;;;;23.02;2.97;;;;;;;21.11;73.87;99781.19;10318001;28;20121;-79
2023/08/01 01:33:12;;;;;;;15.93;3.00;;;;;;;21.05;73.79;99779.50;10335920;28;20080;-79
2023/08/01 01:38:13;;;;;;;62.78;6.95;;;;;;;20.52;74.76;99693.53;10335397;28;20049;-79
2023/08/01 01:43:13;;;;;;;14.23;2.70;;;;;;;21.02;74.56;99771.91;10317744;28;20046;-80
2023/08/01 01:48:14;;;;;;;24.08;3.75;;;;;;;20.20;74.32;99649.34;10334176;28;20069;-79
2023/08/01 01:53:15;;;;;;;11.75;2.85;;;;;;;20.80;74.40;99743.00;10334860;28;20050;-80
2023/08/01 01:58:16;;;;;;;21.17;3.22;;;;;;;20.80;74.76;99751.13;10335299;28;20057;-79
2023/08/01 02:03:16;;;;;;;9.63;2.47;;;;;;;20.26;75.17;99668.06;10333836;28;20053;-79
2023/08/01 02:08:17;;;;;;;13.43;2.85;;;;;;;20.58;75.74;99750.25;10333645;28;20125;-79
2023/08/01 02:13:18;;;;;;;7.00;2.58;;;;;;;20.68;76.09;99766.59;10334234;28;20062;-79
2023/08/01 02:18:19;;;;;;;13.40;3.45;;;;;;;20.79;76.40;99776.47;10333228;28;20050;-77
2023/08/01 02:23:19;;;;;;;5.82;2.90;;;;;;;20.16;76.47;99669.78;10332434;28;20137;-78
2023/08/01 02:28:20;;;;;;;8.63;2.88;;;;;;;20.90;76.66;99780.94;10333031;28;20043;-78
2023/08/01 02:33:21;;;;;;;10.70;2.58;;;;;;;21.04;76.39;99796.78;10332712;28;20123;-78
2023/08/01 02:38:22;;;;;;;13.68;3.08;;;;;;;20.51;76.47;99670.28;10333455;28;20125;-78
2023/08/01 02:43:22;;;;;;;6.50;2.70;;;;;;;21.45;76.00;99765.72;10332282;28;20080;-77
2023/08/01 02:48:23;;;;;;;12.75;2.90;;;;;;;22.08;74.65;99779.56;10332219;28;20044;-78
2023/08/01 02:53:24;;;;;;;9.00;2.40;;;;;;;21.91;74.11;99700.44;10332199;28;20053;-78
2023/08/01 02:58:25;;;;;;;5.93;2.45;;;;;;;22.36;74.06;99758.69;10332795;28;20050;-78
2023/08/01 03:03:25;;;;;;;16.40;3.25;;;;;;;22.74;74.29;99782.78;10331615;28;20085;-78
2023/08/01 03:08:26;;;;;;;13.55;3.03;;;;;;;23.20;73.73;99784.91;10332235;28;20042;-79
2023/08/01 03:13:27;;;;;;;30.15;4.13;;;;;;;23.93;72.77;99782.13;10332442;28;20066;-79
2023/08/01 03:18:28;;;;;;;27.08;4.35;;;;;;;25.29;69.90;99792.28;10314976;28;20039;-79
2023/08/01 03:23:29;;;;;;;54.20;7.57;;;;;;;26.55;67.57;99788.97;10331928;28;20046;-79
2023/08/01 03:28:30;;;;;;;44.00;15.18;;;;;;;27.80;64.55;99779.06;10331660;28;20039;-79
2023/08/01 03:33:33;;;;;;;14.38;5.07;;;;;;;28.88;61.96;99795.25;10331671;28;20553;-80
2023/08/01 03:38:34;;;;;;;13.88;2.80;;;;;;;28.84;61.11;99743.09;10331023;28;20042;-79
2023/08/01 03:43:34;;;;;;;6.03;2.05;;;;;;;29.01;60.51;99737.00;10330994;28;20043;-81
2023/08/01 03:48:35;;;;;;;30.17;3.33;;;;;;;29.24;59.78;99693.34;10329323;28;20430;-80
2023/08/01 03:53:36;;;;;;;5.05;1.70;;;;;;;30.13;57.82;99746.53;10313557;28;20050;-78
2023/08/01 03:58:37;;;;;;;6.60;2.00;;;;;;;30.62;57.10;99796.81;10328044;28;20503;-83
2023/08/01 04:03:38;;;;;;;5.47;2.00;;;;;;;30.66;56.98;99803.25;10328015;28;20066;-84
2023/08/01 04:08:39;;;;;;;4.38;2.00;;;;;;;30.68;56.67;99807.31;10311123;28;20137;-85
2023/08/01 04:13:40;;;;;;;9.23;2.42;;;;;;;30.77;56.64;99788.16;10336331;28;20049;-84
2023/08/01 04:18:41;;;;;;;5.90;2.60;;;;;;;31.36;55.25;99802.44;10336701;28;20053;-86
2023/08/01 04:23:42;;;;;;;8.77;2.08;;;;;;;31.33;53.82;99781.09;10333587;28;20473;-83
2023/08/01 04:28:42;;;;;;;4.60;2.08;;;;;;;31.51;53.58;99773.72;10336350;28;20066;-84
2023/08/01 04:33:43;;;;;;;4.07;2.05;;;;;;;31.72;52.08;99798.59;10335963;28;20058;-84
2023/08/01 04:38:44;;;;;;;7.18;2.35;;;;;;;31.37;52.00;99795.00;10338122;28;20034;-86
2023/08/01 04:43:45;;;;;;;12.80;2.40;;;;;;;31.24;52.21;99796.75;10337444;28;20094;-84
2023/08/01 04:48:46;;;;;;;5.15;2.22;;;;;;;30.96;52.14;99773.41;10335825;28;20065;-83
2023/08/01 04:53:47;;;;;;;15.50;2.25;;;;;;;30.66;52.82;99770.38;10336848;28;20046;-84
2023/08/01 04:58:47;;;;;;;14.73;2.28;;;;;;;30.37;52.29;99733.31;10336935;28;20572;-84
2023/08/01 05:03:48;;;;;;;4.47;2.03;;;;;;;30.43;50.93;99786.88;10335215;28;20069;-85
2023/08/01 05:08:49;;;;;;;7.47;2.00;;;;;;;30.14;50.59;99783.75;10337122;28;20502;-85
2023/08/01 05:13:50;;;;;;;3.60;1.88;;;;;;;29.19;50.98;99738.00;10335520;28;20081;-84
2023/08/01 05:18:50;;;;;;;8.48;2.20;;;;;;;29.03;52.14;99770.34;10336648;28;20046;-84
2023/08/01 05:23:51;;;;;;;10.45;2.60;;;;;;;28.93;53.14;99773.28;10335498;28;20088;-85
2023/08/01 05:28:52;;;;;;;10.13;2.40;;;;;;;28.95;54.00;99764.75;10335534;28;20093;-84
2023/08/01 05:33:52;;;;;;;6.05;2.40;;;;;;;28.58;54.28;99731.84;10335583;28;20129;-83
2023/08/01 05:38:53;;;;;;;5.25;2.20;;;;;;;28.78;54.45;99763.44;10335889;28;20403;-85
2023/08/01 05:43:54;;;;;;;6.18;2.38;;;;;;;28.70;53.86;99701.28;10335285;28;20034;-84
2023/08/01 05:48:55;;;;;;;4.80;2.10;;;;;;;28.63;52.80;99707.16;10335936;28;20412;-84
2023/08/01 05:53:56;;;;;;;6.55;2.30;;;;;;;29.06;53.09;99777.94;10334751;28;20046;-84
2023/08/01 05:58:56;;;;;;;5.18;2.38;;;;;;;28.96;53.47;99771.84;10334576;28;20126;-83
2023/08/01 06:03:57;;;;;;;4.05;2.30;;;;;;;29.15;53.18;99772.56;10334355;28;20124;-85
2023/08/01 06:08:58;;;;;;;9.95;2.72;;;;;;;29.25;53.74;99747.72;10333782;28;20046;-83
2023/08/01 06:13:59;;;;;;;4.80;2.08;;;;;;;29.25;53.83;99723.09;10334589;28;20050;-83
2023/08/01 06:19:00;;;;;;;4.97;2.42;;;;;;;29.71;53.83;99770.56;10333290;28;20038;-84
2023/08/01 06:24:01;;;;;;;5.68;2.47;;;;;;;29.17;53.06;99666.41;10333710;28;20054;-84
2023/08/01 06:29:02;;;;;;;3.53;2.13;;;;;;;29.82;53.40;99730.84;10333958;28;20042;-84
2023/08/01 06:34:02;;;;;;;5.55;2.10;;;;;;;30.06;53.16;99757.13;10332806;28;20057;-84
2023/08/01 06:39:03;;;;;;;5.53;2.30;;;;;;;30.34;53.75;99755.06;10332990;28;20433;-84
2023/08/01 06:44:04;;;;;;;5.30;2.33;;;;;;;30.08;54.10;99689.94;10333464;28;20076;-83
2023/08/01 06:49:05;;;;;;;4.18;1.70;;;;;;;30.54;53.18;99727.09;10332260;28;20061;-86
2023/08/01 06:54:07;;;;;;;7.63;2.10;;;;;;;30.61;51.31;99756.81;10333010;28;20042;-85
2023/08/01 06:59:08;;;;;;;6.38;1.70;;;;;;;30.61;49.55;99745.84;10332548;28;20533;-84
2023/08/01 07:04:10;;;;;;;7.07;1.80;;;;;;;30.49;49.83;99702.59;10332381;28;20042;-84
2023/08/01 07:09:11;;;;;;;2.67;1.52;;;;;;;30.99;49.25;99737.13;10332633;28;20046;-83
2023/08/01 07:14:12;;;;;;;7.88;2.22;;;;;;;31.18;48.59;99736.84;10332777;28;20058;-85
2023/08/01 07:19:13;;;;;;;6.43;1.67;;;;;;;31.12;47.73;99717.00;10330974;28;20089;-85
2023/08/01 07:24:14;;;;;;;8.43;1.92;;;;;;;30.80;47.50;99655.13;10331734;28;20097;-85
2023/08/01 07:29:15;;;;;;;4.40;1.65;;;;;;;31.26;47.47;99714.09;10331324;28;20066;-84
2023/08/01 07:34:16;;;;;;;6.60;1.77;;;;;;;30.82;47.03;99634.50;10331958;28;20081;-83
2023/08/01 07:39:17;;;;;;;11.55;2.00;;;;;;;31.57;47.36;99709.28;10314011;28;20084;-84
2023/08/01 07:44:17;;;;;;;8.85;2.25;;;;;;;31.26;45.66;99646.31;10333006;28;20049;-83
2023/08/01 07:49:18;;;;;;;8.35;2.40;;;;;;;31.15;45.50;99634.84;10339726;28;20046;-84
2023/08/01 07:54:19;;;;;;;10.60;2.88;;;;;;;31.59;45.18;99693.31;10339438;28;20038;-85
2023/08/01 07:59:20;;;;;;;22.98;3.25;;;;;;;31.78;44.72;99683.91;10339494;28;20046;-84
2023/08/01 08:04:20;;;;;;;10.65;3.03;;;;;;;32.24;44.57;99696.09;10339060;28;20498;-85
2023/08/01 08:09:22;;;;;;;7.30;3.25;;;;;;;31.89;43.14;99623.94;10339051;28;20096;-86
2023/08/01 08:14:23;;;;;;;10.38;3.75;;;;;;;32.07;43.06;99625.53;10338415;28;20038;-87
2023/08/01 08:19:25;;;;;;;7.30;4.53;;;;;;;32.02;42.33;99620.22;10338455;28;20471;-85
2023/08/01 08:24:25;;;;;;;7.60;4.30;;;;;;;32.04;41.23;99604.22;10338367;28;20038;-85
2023/08/01 08:29:26;;;;;;;9.50;4.95;;;;;;;32.34;41.47;99662.78;10338082;28;20521;-87
2023/08/01 08:34:27;;;;;;;7.68;4.93;;;;;;;32.41;41.39;99651.25;10320227;28;20042;-86
2023/08/01 08:39:28;;;;;;;15.35;5.80;;;;;;;31.96;41.58;99578.38;10337240;28;20042;-87
2023/08/01 08:44:30;;;;;;;15.82;5.60;;;;;;;32.29;41.21;99581.28;10337592;28;20046;-86
2023/08/01 08:49:32;;;;;;;15.27;5.43;;;;;;;33.06;40.97;99624.38;10338056;28;20042;-86
2023/08/01 08:54:33;;;;;;;8.77;5.40;;;;;;;32.69;40.68;99571.84;10337882;28;20121;-86
2023/08/01 08:59:34;;;;;;;11.07;6.07;;;;;;;33.18;40.68;99630.72;10336434;28;20442;-85
2023/08/01 09:04:35;;;;;;;10.03;5.87;;;;;;;33.47;41.16;99606.97;10337450;28;20104;-86
2023/08/01 09:09:36;;;;;;;13.90;5.35;;;;;;;33.14;41.17;99535.41;10335811;28;20045;-85
2023/08/01 09:14:37;;;;;;;9.57;5.03;;;;;;;33.39;40.21;99580.34;10336620;28;20035;-86
2023/08/01 09:19:38;;;;;;;16.90;5.53;;;;;;;33.19;40.01;99521.44;10335646;28;20129;-85
2023/08/01 09:24:39;;;;;;;10.75;5.60;;;;;;;33.35;40.47;99546.38;10335409;28;20034;-83
2023/08/01 09:29:40;;;;;;;9.77;4.78;;;;;;;33.71;39.96;99597.19;10316653;28;20050;-84
2023/08/01 09:34:42;;;;;;;11.45;4.43;;;;;;;33.80;40.45;99573.13;10333496;28;20101;-82
2023/08/01 09:39:46;;;;;;;13.90;4.32;;;;;;;34.03;39.93;99584.53;10333537;28;20399;-84
2023/08/01 09:44:47;;;;;;;7.22;3.65;;;;;;;34.05;39.57;99585.00;10333148;28;20133;-83
2023/08/01 09:49:50;;;;;;;13.27;3.60;;;;;;;33.64;38.67;99509.63;10333174;28;20569;-82
2023/08/01 09:54:50;;;;;;;12.68;3.38;;;;;;;33.49;38.93;99493.75;10330844;28;20046;-82
2023/08/01 09:59:51;;;;;;;4.75;2.65;;;;;;;33.81;39.66;99523.19;10333349;28;20521;-85
2023/08/01 10:04:58;;;;;;;4.90;2.30;;;;;;;33.95;38.22;99549.59;10314445;28;20030;-84
2023/08/01 10:10:00;;;;;;;5.45;2.47;;;;;;;34.19;38.64;99570.88;10332797;28;20449;-84
2023/08/01 10:15:01;;;;;;;13.50;2.60;;;;;;;33.80;38.22;99540.06;10331768;28;20042;-85
2023/08/01 10:20:03;;;;;;;8.27;2.27;;;;;;;33.84;38.47;99516.19;10330063;28;20046;-87
2023/08/01 10:25:05;;;;;;;8.38;1.95;;;;;;;34.01;38.18;99529.72;10331603;28;20390;-85
2023/08/01 10:30:07;;;;;;;13.00;2.30;;;;;;;34.19;38.40;99524.81;10331380;28;20038;-83
2023/08/01 10:35:10;;;;;;;7.63;2.13;;;;;;;33.70;37.84;99402.81;10331740;28;20495;-85
2023/08/01 10:40:11;;;;;;;5.80;2.17;;;;;;;34.51;36.99;99545.09;10331537;28;20042;-82
2023/08/01 10:45:22;;;;;;;4.13;1.75;;;;;;;34.49;36.96;99511.56;10330918;28;20121;-84
2023/08/01 10:50:23;;;;;;;12.75;2.65;;;;;;;34.59;37.40;99517.78;10329241;28;20090;-83
2023/08/01 10:55:24;;;;;;;6.28;1.90;;;;;;;34.83;37.73;99530.69;10329657;28;20038;-85
2023/08/01 11:00:25;;;;;;;5.68;2.05;;;;;;;34.37;36.85;99450.91;10332791;28;20057;-86
2023/08/01 11:05:28;;;;;;;10.88;2.40;;;;;;;34.65;36.51;99505.34;10332414;28;20375;-87
2023/08/01 11:10:31;;;;;;;16.50;2.30;;;;;;;34.44;36.06;99475.97;10331715;28;20084;-85
2023/08/01 11:15:31;;;;;;;11.95;2.10;;;;;;;34.47;36.45;99446.88;10314211;28;20042;-86
2023/08/01 11:20:38;;;;;;;8.48;2.00;;;;;;;34.85;35.78;99511.81;10332029;28;20049;-84
2023/08/01 11:25:43;;;;;;;9.80;2.22;;;;;;;34.78;35.45;99501.38;10331769;28;20038;-83
2023/08/01 11:30:45;;;;;;;6.80;2.00;;;;;;;34.62;35.64;99479.25;10332290;28;20051;-86
2023/08/01 11:35:50;;;;;;;11.13;2.67;;;;;;;34.76;35.48;99500.91;10331118;28;20035;-86
2023/08/01 11:40:51;;;;;;;8.68;2.22;;;;;;;34.76;35.96;99467.81;10331449;28;20046;-86
2023/08/01 11:45:55;;;;;;;21.73;2.87;;;;;;;34.82;36.07;99451.81;10331594;28;20494;-84
2023/08/01 11:50:58;;;;;;;11.73;1.98;;;;;;;34.95;35.57;99459.69;10331158;28;20550;-83
2023/08/01 11:55:59;;;;;;;8.68;2.08;;;;;;;34.95;35.16;99486.47;10331205;28;20047;-84
2023/08/01 12:01:03;;;;;;;12.60;2.33;;;;;;;34.86;35.77;99483.06;10331777;28;20054;-85
2023/08/01 12:06:07;;;;;;;8.65;1.90;;;;;;;34.92;35.97;99470.63;10331029;28;20035;-85
2023/08/01 12:11:38;;;;;;;8.75;1.92;;;;;;;34.99;35.04;99474.38;10330252;28;20120;-85
2023/08/01 12:16:44;;;;;;;10.27;1.97;;;;;;;35.01;35.80;99464.94;10305355;28;20063;-84
2023/08/01 12:21:45;;;;;;;4.00;1.70;;;;;;;34.83;36.08;99442.41;10329790;28;20053;-85
2023/08/01 12:26:46;;;;;;;12.63;2.33;;;;;;;34.81;35.46;99450.22;10330473;28;20046;-85
2023/08/01 12:31:46;;;;;;;18.35;2.65;;;;;;;34.68;35.68;99430.16;10333386;28;20049;-85
2023/08/01 12:36:47;;;;;;;6.85;2.15;;;;;;;34.33;35.64;99381.09;10337665;28;20053;-84
2023/08/01 12:41:48;;;;;;;42.47;3.42;;;;;;;34.43;36.02;99377.84;10336109;28;20510;-86
2023/08/01 12:46:49;;;;;;;15.63;2.70;;;;;;;34.38;35.69;99360.75;10331948;28;20042;-84
2023/08/01 12:51:50;;;;;;;11.52;2.13;;;;;;;34.64;35.83;99405.25;10337506;28;20178;-83
2023/08/01 12:56:50;;;;;;;8.82;2.42;;;;;;;34.94;35.99;99458.09;10336581;28;20046;-85
2023/08/01 13:01:51;;;;;;;8.27;2.22;;;;;;;34.68;35.68;99414.41;10337101;28;20034;-85
2023/08/01 13:06:52;;;;;;;6.05;1.90;;;;;;;34.31;35.64;99372.38;10337744;28;20049;-83
2023/08/01 13:11:53;;;;;;;13.48;2.78;;;;;;;34.33;35.79;99380.31;10337015;28;20165;-85
2023/08/01 13:16:53;;;;;;;7.97;2.03;;;;;;;34.25;35.83;99382.03;10336915;28;20454;-87
2023/08/01 13:21:54;;;;;;;20.55;2.55;;;;;;;34.46;36.01;99428.72;10335487;28;20049;-84
2023/08/01 13:26:55;;;;;;;7.57;2.17;;;;;;;34.54;36.45;99441.59;10335194;28;20034;-83
2023/08/01 13:31:56;;;;;;;9.27;1.98;;;;;;;34.25;36.58;99424.22;10332354;28;20038;-86
2023/08/01 13:36:57;;;;;;;25.90;2.85;;;;;;;33.90;37.08;99376.28;10335490;28;20068;-87
2023/08/01 13:41:58;;;;;;;12.15;2.50;;;;;;;34.38;37.03;99441.50;10336446;28;20050;-86
2023/08/01 13:46:58;;;;;;;19.73;2.50;;;;;;;34.29;37.43;99438.09;10333419;28;20061;-86
2023/08/01 13:52:00;;;;;;;14.13;2.50;;;;;;;33.69;37.40;99357.16;10334748;28;20038;-85
2023/08/01 13:57:01;;;;;;;13.77;2.73;;;;;;;33.88;37.82;99406.13;10334141;28;20088;-85
2023/08/01 14:02:03;;;;;;;16.02;2.60;;;;;;;34.15;37.90;99452.25;10333865;28;20413;-85
2023/08/01 14:07:03;;;;;;;13.75;2.63;;;;;;;34.09;37.36;99448.13;10333768;28;20121;-85
2023/08/01 14:12:05;;;;;;;14.40;3.10;;;;;;;34.01;37.86;99460.03;10333039;28;20069;-82
2023/08/01 14:17:06;;;;;;;12.13;2.60;;;;;;;33.78;38.52;99432.97;10333649;28;20053;-86
2023/08/01 14:22:07;;;;;;;16.05;2.30;;;;;;;33.74;38.56;99448.56;10332507;28;20045;-85
2023/08/01 14:27:08;;;;;;;11.82;2.60;;;;;;;33.44;38.60;99406.66;10333337;28;20124;-85
2023/08/01 14:32:08;;;;;;;8.82;2.22;;;;;;;33.57;38.38;99432.31;10334051;28;20398;-85
2023/08/01 14:37:09;;;;;;;10.50;2.40;;;;;;;33.54;38.59;99455.03;10332835;28;20048;-85
2023/08/01 14:42:10;;;;;;;11.63;2.50;;;;;;;33.41;38.91;99446.69;10333043;28;20558;-85
2023/08/01 14:47:11;;;;;;;17.95;3.05;;;;;;;32.54;39.32;99328.56;10332977;28;20121;-84
2023/08/01 14:52:11;;;;;;;16.27;3.00;;;;;;;33.16;39.06;99440.38;10333704;28;20049;-85
2023/08/01 14:57:12;;;;;;;9.23;2.42;;;;;;;32.71;38.83;99402.63;10334642;28;20130;-86
2023/08/01 15:02:13;;;;;;;49.15;4.65;;;;;;;32.84;40.05;99455.72;10332904;28;20050;-84
2023/08/01 15:07:14;;;;;;;42.63;4.82;;;;;;;32.72;39.55;99461.19;10332316;28;20044;-84
2023/08/01 15:12:14;;;;;;;13.30;2.65;;;;;;;32.48;39.30;99470.13;10331831;28;20050;-85
2023/08/01 15:17:15;;;;;;;15.60;3.00;;;;;;;32.13;39.29;99436.56;10332030;28;20042;-84
2023/08/01 15:22:18;;;;;;;16.35;3.25;;;;;;;32.01;39.79;99427.13;10329885;28;20506;-84
2023/08/01 15:27:18;;;;;;;;;;;;;;;32.44;39.71;99478.22;10332555;28;20073;-83
2023/08/01 15:32:19;;;;;;;15.05;2.95;;;;;;;30.97;39.99;99317.03;10332189;28;19968;-84
2023/08/01 15:37:20;;;;;;;13.63;2.72;;;;;;;31.53;40.51;99441.22;10332018;28;20074;-82
2023/08/01 15:42:21;;;;;;;19.83;2.95;;;;;;;31.22;41.22;99423.09;10332170;28;20422;-85
2023/08/01 15:47:21;;;;;;;26.90;3.30;;;;;;;31.55;41.71;99505.66;10330879;28;20045;-85
2023/08/01 15:52:23;;;;;;;15.35;2.60;;;;;;;31.49;41.37;99503.41;10314266;28;20035;-84
2023/08/01 15:57:23;;;;;;;21.58;2.88;;;;;;;31.37;41.89;99501.34;10331032;28;20413;-81
2023/08/01 16:02:24;;;;;;;11.20;3.17;;;;;;;31.16;41.73;99498.47;10331410;28;20051;-85
2023/08/01 16:07:25;;;;;;;13.65;2.92;;;;;;;30.93;42.29;99475.91;10336174;28;20038;-84
2023/08/01 16:12:26;;;;;;;22.48;3.35;;;;;;;31.05;42.65;99513.66;10339265;28;20069;-76
2023/08/01 16:17:26;;;;;;;18.67;3.20;;;;;;;30.68;42.75;99477.53;10338186;28;20045;-84
2023/08/01 16:22:27;;;;;;;10.80;2.90;;;;;;;30.38;43.02;99455.44;10338956;28;20053;-84
2023/08/01 16:27:28;;;;;;;14.93;2.80;;;;;;;30.63;43.09;99510.56;10338266;28;20048;-83
2023/08/01 16:32:29;;;;;;;15.55;2.45;;;;;;;29.94;43.39;99423.59;10337439;28;20048;-85
2023/08/01 16:37:30;;;;;;;11.52;2.40;;;;;;;30.40;44.07;99526.38;10337746;28;20116;-84
2023/08/01 16:42:30;;;;;;;12.45;2.58;;;;;;;30.30;43.89;99540.34;10337636;28;20093;-83
2023/08/01 16:47:32;;;;;;;13.75;2.72;;;;;;;30.22;43.96;99531.81;10337452;28;20058;-85
2023/08/01 16:52:32;;;;;;;8.00;2.58;;;;;;;29.68;44.24;99467.38;10336763;28;20495;-84
2023/08/01 16:57:33;;;;;;;12.07;2.67;;;;;;;30.05;44.60;99559.13;10337219;28;20037;-84
2023/08/01 17:02:34;;;;;;;10.20;2.33;;;;;;;29.92;44.86;99549.09;10330421;28;20831;-76
2023/08/01 17:07:35;;;;;;;11.68;2.03;;;;;;;29.88;44.95;99548.91;10337252;28;20046;-77
2023/08/01 17:12:36;;;;;;;9.15;2.63;;;;;;;29.33;45.06;99472.63;10335281;28;20117;-75
2023/08/01 17:17:37;;;;;;;6.45;1.85;;;;;;;29.45;45.36;99519.38;10334958;28;20077;-77
2023/08/01 17:22:38;;;;;;;10.35;2.50;;;;;;;29.67;45.51;99564.25;10333256;28;20042;-76
2023/08/01 17:27:38;;;;;;;9.40;2.28;;;;;;;29.58;45.64;99564.19;10333951;28;20038;-76
2023/08/01 17:32:39;;;;;;;8.35;2.25;;;;;;;29.38;46.42;99551.84;10330451;28;20049;-77
2023/08/01 17:37:40;;;;;;;15.18;2.30;;;;;;;29.12;46.12;99530.59;10316821;28;20038;-75
2023/08/01 17:42:41;;;;;;;8.88;2.17;;;;;;;29.27;46.08;99577.84;10333713;28;20427;-76
2023/08/01 17:47:41;;;;;;;7.45;2.38;;;;;;;29.15;45.68;99569.38;10333966;28;20478;-76
2023/08/01 17:52:42;;;;;;;8.27;2.38;;;;;;;28.95;45.63;99548.75;10331989;28;20038;-77
2023/08/01 17:57:43;;;;;;;7.47;2.28;;;;;;;28.69;45.77;99530.25;10316189;28;20038;-76
2023/08/01 18:02:44;;;;;;;12.13;2.35;;;;;;;28.83;45.43;99544.66;10331361;28;20132;-76
2023/08/01 18:07:45;;;;;;;8.77;2.08;;;;;;;28.88;45.51;99576.53;10332848;28;20049;-76
2023/08/01 18:12:47;;;;;;;20.08;2.78;;;;;;;28.70;45.58;99567.38;10334418;28;20062;-76
2023/08/01 18:17:48;;;;;;;6.30;2.40;;;;;;;28.72;45.52;99577.97;10332145;28;20518;-76
2023/08/01 18:22:50;;;;;;;5.90;2.40;;;;;;;28.12;45.54;99500.56;10329590;28;20046;-75
2023/08/01 18:27:51;;;;;;;12.00;2.57;;;;;;;27.93;45.56;99486.22;10330436;28;20038;-76
2023/08/01 18:32:52;;;;;;;8.85;1.65;;;;;;;28.40;45.90;99582.47;10330617;28;20034;-75
2023/08/01 18:37:53;;;;;;;5.28;2.03;;;;;;;28.27;45.81;99580.53;10331185;28;20437;-75
2023/08/01 18:42:53;;;;;;;15.43;2.05;;;;;;;27.31;46.13;99443.75;10331273;28;20533;-76
2023/08/01 18:47:54;;;;;;;6.22;2.00;;;;;;;27.55;46.11;99502.75;10332887;28;20042;-76
2023/08/01 18:52:55;;;;;;;11.10;1.70;;;;;;;27.54;46.48;99514.78;10332840;28;20045;-76
2023/08/01 18:57:59;;;;;;;8.20;2.00;;;;;;;27.85;46.33;99585.19;10331804;28;20046;-76
2023/08/01 19:02:59;;;;;;;4.43;1.80;;;;;;;27.28;46.25;99503.50;10331748;28;20046;-76
2023/08/01 19:08:00;;;;;;;6.90;2.00;;;;;;;27.55;46.29;99549.13;10332296;28;20517;-76
2023/08/01 19:13:02;;;;;;;9.10;1.98;;;;;;;27.45;46.67;99550.09;10332907;28;20399;-75
2023/08/01 19:18:02;;;;;;;6.00;1.52;;;;;;;27.46;46.80;99564.56;10332003;28;20043;-76
2023/08/01 19:23:03;;;;;;;6.90;2.22;;;;;;;27.42;47.17;99579.91;10331257;28;20046;-77
2023/08/01 19:28:04;;;;;;;6.20;1.55;;;;;;;27.30;47.25;99578.44;10331915;28;20042;-76
2023/08/01 19:33:05;;;;;;;9.88;1.63;;;;;;;26.66;47.62;99487.31;10330810;28;20038;-78
2023/08/01 19:38:05;;;;;;;9.85;1.45;;;;;;;27.02;47.77;99569.31;10313732;28;20041;-75
2023/08/01 19:43:06;;;;;;;3.55;1.55;;;;;;;26.83;48.08;99553.00;10337885;28;20042;-76
2023/08/01 19:48:11;;;;;;;8.65;1.70;;;;;;;26.76;48.39;99557.19;10339350;28;20081;-75
2023/08/01 19:53:11;;;;;;;5.32;1.50;;;;;;;26.49;48.72;99525.13;10322881;28;20042;-76
2023/08/01 19:58:12;;;;;;;9.40;1.52;;;;;;;26.52;49.53;99546.34;10339709;28;20394;-75
2023/08/01 20:03:13;;;;;;;5.63;1.65;;;;;;;26.56;49.58;99580.06;10339067;28;20129;-76
2023/08/01 20:08:14;;;;;;;6.78;1.48;;;;;;;26.38;50.18;99581.63;10338004;28;20043;-75
2023/08/01 20:13:14;;;;;;;3.13;1.70;;;;;;;25.84;50.69;99504.66;10338453;28;20129;-75
2023/08/01 20:18:15;;;;;;;4.57;1.75;;;;;;;26.13;50.74;99572.66;10338879;28;20105;-76
2023/08/01 20:23:16;;;;;;;6.07;1.67;;;;;;;26.13;50.88;99590.91;10337818;28;20107;-75
2023/08/01 20:28:18;;;;;;;14.82;1.80;;;;;;;26.10;51.29;99614.06;10338858;28;20125;-74
2023/08/01 20:33:20;;;;;;;7.65;1.67;;;;;;;25.89;51.92;99580.00;10338180;28;20053;-76
2023/08/01 20:38:21;;;;;;;3.63;1.33;;;;;;;25.89;52.06;99590.88;10338224;28;20046;-76
2023/08/01 20:43:25;;;;;;;3.83;1.45;;;;;;;25.64;53.06;99570.16;10337505;28;20085;-75
2023/08/01 20:48:25;;;;;;;6.00;1.60;;;;;;;25.84;52.78;99601.81;10337615;28;20050;-77
2023/08/01 20:53:26;;;;;;;6.72;1.70;;;;;;;25.76;53.14;99600.50;10336030;28;20529;-76
2023/08/01 20:58:27;;;;;;;5.63;1.67;;;;;;;25.56;53.42;99576.22;10336984;28;20129;-76
2023/08/01 21:03:28;;;;;;;6.28;1.60;;;;;;;25.67;53.96;99596.78;10337096;28;20406;-76
2023/08/01 21:08:28;;;;;;;3.70;1.98;;;;;;;25.62;54.30;99610.44;10336607;28;20042;-76
2023/08/01 21:13:29;;;;;;;7.32;2.20;;;;;;;25.49;54.86;99596.41;10336993;28;20058;-76
2023/08/01 21:18:30;;;;;;;17.10;2.55;;;;;;;25.37;55.30;99592.41;10336096;28;20039;-76
2023/08/01 21:23:31;;;;;;;8.02;2.60;;;;;;;24.56;55.89;99488.63;10336464;28;20101;-76
2023/08/01 21:28:31;;;;;;;7.85;2.60;;;;;;;25.25;56.53;99600.94;10335930;28;20045;-76
2023/08/01 21:33:33;;;;;;;8.40;3.88;;;;;;;24.98;57.77;99583.16;10335933;28;20050;-76
2023/08/01 21:38:34;;;;;;;8.30;4.10;;;;;;;24.52;58.42;99512.00;10335633;28;20042;-76
2023/08/01 21:43:35;;;;;;;7.97;4.22;;;;;;;25.00;59.36;99602.69;10335482;28;20050;-76
2023/08/01 21:48:36;;;;;;;8.30;3.42;;;;;;;24.91;60.21;99598.13;10334628;28;20043;-76
2023/08/01 21:53:36;;;;;;;8.23;3.90;;;;;;;24.73;61.49;99578.66;10335222;28;20039;-76
2023/08/01 21:58:37;;;;;;;10.43;3.80;;;;;;;24.65;62.65;99571.13;10334819;28;20045;-76
2023/08/01 22:03:38;;;;;;;6.53;3.45;;;;;;;24.58;63.34;99563.28;10332753;28;20038;-76
2023/08/01 22:08:39;;;;;;;7.07;3.97;;;;;;;24.78;64.34;99596.84;10335649;28;20042;-76
2023/08/01 22:13:39;;;;;;;8.98;4.13;;;;;;;24.73;65.18;99599.59;10334672;28;20054;-76
2023/08/01 22:18:40;;;;;;;10.50;4.13;;;;;;;24.70;66.01;99605.59;10333985;28;20046;-76
2023/08/01 22:23:41;;;;;;;9.82;4.45;;;;;;;24.56;66.41;99595.34;10333202;28;20415;-76
2023/08/01 22:28:42;;;;;;;12.95;4.45;;;;;;;24.55;66.94;99599.13;10334248;28;20085;-76
2023/08/01 22:33:42;;;;;;;9.00;4.60;;;;;;;24.57;67.17;99612.44;10333571;28;20034;-76
2023/08/01 22:38:45;;;;;;;10.52;3.92;;;;;;;24.26;67.84;99573.69;10333385;28;20045;-76
2023/08/01 22:43:47;;;;;;;7.35;4.43;;;;;;;24.43;67.98;99600.56;10332539;28;20042;-76
2023/08/01 22:48:48;;;;;;;8.37;4.80;;;;;;;24.31;68.55;99601.63;10333341;28;20481;-76
2023/08/01 22:53:51;;;;;;;7.88;4.50;;;;;;;23.95;69.30;99568.38;10332028;28;20136;-77
2023/08/01 22:58:51;;;;;;;7.68;4.60;;;;;;;24.12;69.52;99601.44;10332219;28;20498;-76
2023/08/01 23:03:53;;;;;;;8.63;5.43;;;;;;;23.72;70.25;99544.56;10331915;28;20102;-77
2023/08/01 23:08:57;;;;;;;8.80;5.88;;;;;;;23.57;70.66;99529.09;10314268;28;20097;-76
2023/08/01 23:13:58;;;;;;;12.40;7.20;;;;;;;24.14;70.95;99614.72;10332465;28;20064;-76